METAR Data
IDs: Format: Raw Decoded Include TAF

Data at: 2140 UTC 18 Apr 2021

LFBH 182130Z AUTO 34007KT CAVOK 09/06 Q1022 NOSIG